Mersch, Luxembourg
Current Conditions -  °F | °C
As of 12:50 PM on Tuesday 21 Oct 2014 (Local Time) from ELLX Reporting Station
Broken Clouds Broken Clouds  
Wind Chill: 54°   Ceiling: 1800
Heat Index: 54°   Visibility: 6mi
Dew Point: 46°   Wind: 16mph
Humidity: 77%   Direction: 230°SW
Pressure: 29.8"   Gusts: NA
Location:  49.75°N, 6.11°E
Report Text: ELLX 211050Z 23014KT 190V260 9999 BKN018 12/08 Q1009 TEMPO 24015G30KT
Loading
Personal Weather Stations






























Interactive Weather Map
Tropical Storm Tracking
New forecast layout! Learn more

10-Day Weather Forecast

Advertisements
Track Severe Weather on mobile